MAPA DE AEROPUERTO

INFORMACIÓN METAR y TAF

METAR FOR LEBB
ADDS - METARS form results

(0940 UTC 29 January 2022)
Data provider http://aviationweather.gov/metar/data/
 
METAR text: LEBB 290930Z 11003KT 060V140 9000 BKN018 06/04 Q1038 NOSIG
Conditions at: LEBB (BILBAO/SONDICA , ES) observed 0930 UTC 29 January 2022
Temperature: 6.0°C (43°F)
Dewpoint: 4.0°C (39°F) [RH = 87%]
Pressure (altimeter): 30.65 inches Hg (1038.0 mb)
Winds: from the ESE (110 degrees) at 3 MPH (3 knots; 1.5 m/s)
Visibility: 6 miles ( 9 km)
Ceiling: 1800 feet AGL
Clouds: broken clouds at 1800 feet AGL
Weather: no significant weather observed at this time

METAR text: LEBB 290900Z 10003KT 9000 BKN018 06/04 Q1038 NOSIG
Conditions at: LEBB (BILBAO/SONDICA , ES) observed 0900 UTC 29 January 2022
Temperature: 6.0°C (43°F)
Dewpoint: 4.0°C (39°F) [RH = 87%]
Pressure (altimeter): 30.65 inches Hg (1038.0 mb)
Winds: from the E (100 degrees) at 3 MPH (3 knots; 1.5 m/s)
Visibility: 6 miles ( 9 km)
Ceiling: 1800 feet AGL
Clouds: broken clouds at 1800 feet AGL
Weather: no significant weather observed at this time

Forecast for: LEBB (BILBAO/SONDICA , ES)
Text: TAF LEBB 290500Z 2906/3006 VRB05KT 9999 SCT010 BKN020 TX11/2914Z TN05/3006Z
Forecast period: 0600 UTC 29 January 2022 to 0600 UTC 30 January 2022
Forecast type: FROM: standard forecast or significant change
Winds: variable direction winds at 6 MPH (5 knots; 2.6 m/s)
Visibility: 6 or more miles (10+ km)
Ceiling: 2000 feet AGL
Clouds: scattered clouds at 1000 feet AGL
broken clouds at 2000 feet AGL
Weather: no significant weather forecast for this period
Text: TEMPO 2906/2910 BKN010
Forecast period: 0600 to 1000 UTC 29 January 2022
Forecast type: TEMPORARY: The following changes expected for less than half the time period
Visibility: missing
Ceiling: 1000 feet AGL
Clouds: broken clouds at 1000 feet AGL
Weather: no significant weather forecast for this period
Text: PROB30
Forecast period: 0600 to 0800 UTC 29 January 2022
Forecast type: TEMPORARY: The following changes expected for less than half the time period
Visibility: 1.86 miles (2.99 km)
Ceiling: unknown
Clouds: missing
Weather: BR  (mist)
Text: TEMPO 2906/2908 3000 BR
Forecast period: 1200 to 1700 UTC 29 January 2022
Forecast type: TEMPORARY: The following changes expected for less than half the time period
Winds: from the E (80 degrees) at 12 MPH (10 knots; 5.1 m/s)
Visibility: missing
Ceiling: unknown
Clouds: missing
Weather: no significant weather forecast for this period
Text: PROB40
Forecast period: 2300 UTC 29 January 2022 to 0600 UTC 30 January 2022
Forecast type: TEMPORARY: The following changes expected for less than half the time period
Visibility: missing
Ceiling: 1000 feet AGL
Clouds: broken clouds at 1000 feet AGL
Weather: no significant weather forecast for this period